sensor_id;sensor_type;location;lat;lon;timestamp;P1;durP1;ratioP1;P2;durP2;ratioP2
64667;SDS011;51077;42.716;23.344;2024-03-08T00:01:05;9.30;;;6.80;;
64667;SDS011;51077;42.716;23.344;2024-03-08T00:03:31;9.95;;;6.82;;
64667;SDS011;51077;42.716;23.344;2024-03-08T00:05:57;9.52;;;6.97;;
64667;SDS011;51077;42.716;23.344;2024-03-08T00:08:23;8.00;;;6.03;;
64667;SDS011;51077;42.716;23.344;2024-03-08T00:10:48;8.70;;;6.53;;
64667;SDS011;51077;42.716;23.344;2024-03-08T00:13:14;6.80;;;5.50;;
64667;SDS011;51077;42.716;23.344;2024-03-08T00:15:40;7.27;;;5.67;;
64667;SDS011;51077;42.716;23.344;2024-03-08T00:18:06;7.13;;;5.70;;
64667;SDS011;51077;42.716;23.344;2024-03-08T00:20:32;7.63;;;5.60;;
64667;SDS011;51077;42.716;23.344;2024-03-08T00:22:58;7.88;;;5.30;;
64667;SDS011;51077;42.716;23.344;2024-03-08T00:25:24;7.83;;;5.50;;
64667;SDS011;51077;42.716;23.344;2024-03-08T00:27:49;7.57;;;5.70;;
64667;SDS011;51077;42.716;23.344;2024-03-08T00:30:15;7.00;;;5.37;;
64667;SDS011;51077;42.716;23.344;2024-03-08T00:32:40;7.07;;;5.50;;
64667;SDS011;51077;42.716;23.344;2024-03-08T00:35:06;7.30;;;4.70;;
64667;SDS011;51077;42.716;23.344;2024-03-08T00:37:32;7.15;;;5.20;;
64667;SDS011;51077;42.716;23.344;2024-03-08T00:39:59;6.30;;;4.80;;
64667;SDS011;51077;42.716;23.344;2024-03-08T00:42:25;7.00;;;5.43;;
64667;SDS011;51077;42.716;23.344;2024-03-08T00:44:50;7.70;;;5.10;;
64667;SDS011;51077;42.716;23.344;2024-03-08T00:47:16;6.70;;;4.87;;
64667;SDS011;51077;42.716;23.344;2024-03-08T00:49:41;7.47;;;5.23;;
64667;SDS011;51077;42.716;23.344;2024-03-08T00:52:07;5.80;;;4.97;;
64667;SDS011;51077;42.716;23.344;2024-03-08T00:54:33;7.10;;;5.20;;
64667;SDS011;51077;42.716;23.344;2024-03-08T00:56:59;6.05;;;5.00;;
64667;SDS011;51077;42.716;23.344;2024-03-08T00:59:27;6.75;;;5.35;;
64667;SDS011;51077;42.716;23.344;2024-03-08T01:01:53;6.67;;;5.10;;
64667;SDS011;51077;42.716;23.344;2024-03-08T01:04:18;7.17;;;5.27;;
64667;SDS011;51077;42.716;23.344;2024-03-08T01:06:45;6.93;;;5.10;;
64667;SDS011;51077;42.716;23.344;2024-03-08T01:09:12;6.63;;;5.03;;
64667;SDS011;51077;42.716;23.344;2024-03-08T01:11:38;6.60;;;4.63;;
64667;SDS011;51077;42.716;23.344;2024-03-08T01:14:03;6.10;;;4.67;;
64667;SDS011;51077;42.716;23.344;2024-03-08T01:16:29;5.90;;;4.60;;
64667;SDS011;51077;42.716;23.344;2024-03-08T01:18:54;6.30;;;4.43;;
64667;SDS011;51077;42.716;23.344;2024-03-08T01:21:20;4.80;;;3.80;;
64667;SDS011;51077;42.716;23.344;2024-03-08T01:23:45;5.77;;;4.47;;
64667;SDS011;51077;42.716;23.344;2024-03-08T01:26:10;6.27;;;4.93;;
64667;SDS011;51077;42.716;23.344;2024-03-08T01:28:36;5.43;;;4.23;;
64667;SDS011;51077;42.716;23.344;2024-03-08T01:31:02;5.00;;;3.90;;
64667;SDS011;51077;42.716;23.344;2024-03-08T01:33:28;6.03;;;4.25;;
64667;SDS011;51077;42.716;23.344;2024-03-08T01:35:55;5.35;;;3.83;;
64667;SDS011;51077;42.716;23.344;2024-03-08T01:38:22;4.60;;;3.35;;
64667;SDS011;51077;42.716;23.344;2024-03-08T01:40:47;6.17;;;4.43;;
64667;SDS011;51077;42.716;23.344;2024-03-08T01:43:20;5.28;;;3.85;;
64667;SDS011;51077;42.716;23.344;2024-03-08T01:45:58;5.82;;;4.07;;
64667;SDS011;51077;42.716;23.344;2024-03-08T01:48:27;5.10;;;3.42;;
64667;SDS011;51077;42.716;23.344;2024-03-08T01:50:54;5.60;;;4.15;;
64667;SDS011;51077;42.716;23.344;2024-03-08T01:53:21;5.43;;;4.20;;
64667;SDS011;51077;42.716;23.344;2024-03-08T01:55:48;5.03;;;4.13;;
64667;SDS011;51077;42.716;23.344;2024-03-08T01:58:14;4.75;;;3.47;;
64667;SDS011;51077;42.716;23.344;2024-03-08T02:00:46;5.55;;;4.30;;
64667;SDS011;51077;42.716;23.344;2024-03-08T02:03:16;5.20;;;3.70;;
64667;SDS011;51077;42.716;23.344;2024-03-08T02:05:42;6.33;;;3.63;;
64667;SDS011;51077;42.716;23.344;2024-03-08T02:08:08;4.75;;;3.70;;
64667;SDS011;51077;42.716;23.344;2024-03-08T02:10:43;4.82;;;3.70;;
64667;SDS011;51077;42.716;23.344;2024-03-08T02:13:10;4.32;;;3.13;;
64667;SDS011;51077;42.716;23.344;2024-03-08T02:15:52;4.25;;;3.13;;
64667;SDS011;51077;42.716;23.344;2024-03-08T02:18:21;4.07;;;3.05;;
64667;SDS011;51077;42.716;23.344;2024-03-08T02:20:52;4.30;;;3.47;;
64667;SDS011;51077;42.716;23.344;2024-03-08T02:23:20;4.53;;;3.45;;
64667;SDS011;51077;42.716;23.344;2024-03-08T02:25:46;4.75;;;3.25;;
64667;SDS011;51077;42.716;23.344;2024-03-08T02:28:13;4.05;;;3.13;;
64667;SDS011;51077;42.716;23.344;2024-03-08T02:30:39;4.50;;;3.22;;
64667;SDS011;51077;42.716;23.344;2024-03-08T02:33:05;3.80;;;2.70;;
64667;SDS011;51077;42.716;23.344;2024-03-08T02:35:32;3.58;;;2.75;;
64667;SDS011;51077;42.716;23.344;2024-03-08T02:37:58;4.22;;;2.70;;
64667;SDS011;51077;42.716;23.344;2024-03-08T02:40:24;3.80;;;2.75;;
64667;SDS011;51077;42.716;23.344;2024-03-08T02:42:50;4.37;;;3.10;;
64667;SDS011;51077;42.716;23.344;2024-03-08T02:45:15;3.70;;;2.87;;
64667;SDS011;51077;42.716;23.344;2024-03-08T02:47:40;4.17;;;2.80;;
64667;SDS011;51077;42.716;23.344;2024-03-08T02:50:06;4.27;;;2.97;;
64667;SDS011;51077;42.716;23.344;2024-03-08T02:52:33;3.58;;;2.80;;
64667;SDS011;51077;42.716;23.344;2024-03-08T02:55:00;3.33;;;2.42;;
64667;SDS011;51077;42.716;23.344;2024-03-08T02:57:26;3.87;;;2.80;;
64667;SDS011;51077;42.716;23.344;2024-03-08T02:59:53;4.10;;;3.00;;
64667;SDS011;51077;42.716;23.344;2024-03-08T03:02:18;4.75;;;3.10;;
64667;SDS011;51077;42.716;23.344;2024-03-08T03:04:44;4.23;;;3.50;;
64667;SDS011;51077;42.716;23.344;2024-03-08T03:07:09;3.77;;;2.80;;
64667;SDS011;51077;42.716;23.344;2024-03-08T03:09:36;4.85;;;3.75;;
64667;SDS011;51077;42.716;23.344;2024-03-08T03:12:01;3.97;;;2.73;;
64667;SDS011;51077;42.716;23.344;2024-03-08T03:14:27;3.95;;;3.15;;
64667;SDS011;51077;42.716;23.344;2024-03-08T03:16:53;5.10;;;3.10;;
64667;SDS011;51077;42.716;23.344;2024-03-08T03:19:19;3.88;;;2.88;;
64667;SDS011;51077;42.716;23.344;2024-03-08T03:21:45;5.03;;;3.30;;
64667;SDS011;51077;42.716;23.344;2024-03-08T03:24:11;4.78;;;3.25;;
64667;SDS011;51077;42.716;23.344;2024-03-08T03:26:40;4.57;;;2.83;;
64667;SDS011;51077;42.716;23.344;2024-03-08T03:29:05;4.05;;;2.60;;
64667;SDS011;51077;42.716;23.344;2024-03-08T03:31:31;5.23;;;3.17;;
64667;SDS011;51077;42.716;23.344;2024-03-08T03:33:57;5.20;;;3.00;;
64667;SDS011;51077;42.716;23.344;2024-03-08T03:36:31;4.72;;;3.20;;
64667;SDS011;51077;42.716;23.344;2024-03-08T03:38:56;4.22;;;3.10;;
64667;SDS011;51077;42.716;23.344;2024-03-08T03:41:31;4.55;;;3.03;;
64667;SDS011;51077;42.716;23.344;2024-03-08T03:43:56;4.47;;;3.03;;
64667;SDS011;51077;42.716;23.344;2024-03-08T03:46:22;5.23;;;3.03;;
64667;SDS011;51077;42.716;23.344;2024-03-08T03:48:48;5.17;;;3.20;;
64667;SDS011;51077;42.716;23.344;2024-03-08T03:51:13;4.77;;;2.93;;
64667;SDS011;51077;42.716;23.344;2024-03-08T03:53:40;5.30;;;3.17;;
64667;SDS011;51077;42.716;23.344;2024-03-08T03:56:06;4.67;;;3.07;;
64667;SDS011;51077;42.716;23.344;2024-03-08T03:58:32;4.70;;;2.83;;
64667;SDS011;51077;42.716;23.344;2024-03-08T04:00:58;5.38;;;2.75;;
64667;SDS011;51077;42.716;23.344;2024-03-08T04:03:23;4.20;;;2.77;;
64667;SDS011;51077;42.716;23.344;2024-03-08T04:05:49;4.80;;;2.63;;
64667;SDS011;51077;42.716;23.344;2024-03-08T04:08:14;4.93;;;3.03;;
64667;SDS011;51077;42.716;23.344;2024-03-08T04:10:40;4.53;;;2.47;;
64667;SDS011;51077;42.716;23.344;2024-03-08T04:13:08;4.25;;;2.58;;
64667;SDS011;51077;42.716;23.344;2024-03-08T04:15:36;4.18;;;2.42;;
64667;SDS011;51077;42.716;23.344;2024-03-08T04:18:03;4.90;;;2.78;;
64667;SDS011;51077;42.716;23.344;2024-03-08T04:20:29;4.40;;;2.40;;
64667;SDS011;51077;42.716;23.344;2024-03-08T04:22:55;3.92;;;2.40;;
64667;SDS011;51077;42.716;23.344;2024-03-08T04:25:21;4.72;;;2.72;;
64667;SDS011;51077;42.716;23.344;2024-03-08T04:27:47;4.43;;;2.70;;
64667;SDS011;51077;42.716;23.344;2024-03-08T04:30:13;3.72;;;2.40;;
64667;SDS011;51077;42.716;23.344;2024-03-08T04:32:39;4.00;;;2.60;;
64667;SDS011;51077;42.716;23.344;2024-03-08T04:35:06;3.65;;;2.38;;
64667;SDS011;51077;42.716;23.344;2024-03-08T04:37:32;5.32;;;3.00;;
64667;SDS011;51077;42.716;23.344;2024-03-08T04:39:59;5.28;;;2.50;;
64667;SDS011;51077;42.716;23.344;2024-03-08T04:42:24;4.67;;;2.70;;
64667;SDS011;51077;42.716;23.344;2024-03-08T04:44:51;5.43;;;2.67;;
64667;SDS011;51077;42.716;23.344;2024-03-08T04:47:18;5.88;;;3.30;;
64667;SDS011;51077;42.716;23.344;2024-03-08T04:49:45;3.90;;;2.30;;
64667;SDS011;51077;42.716;23.344;2024-03-08T04:52:11;4.53;;;2.92;;
64667;SDS011;51077;42.716;23.344;2024-03-08T04:54:37;4.53;;;2.53;;
64667;SDS011;51077;42.716;23.344;2024-03-08T04:57:02;4.10;;;2.70;;
64667;SDS011;51077;42.716;23.344;2024-03-08T04:59:29;4.75;;;2.63;;
64667;SDS011;51077;42.716;23.344;2024-03-08T05:01:55;5.17;;;2.73;;
64667;SDS011;51077;42.716;23.344;2024-03-08T05:04:21;4.22;;;2.53;;
64667;SDS011;51077;42.716;23.344;2024-03-08T05:06:47;4.40;;;2.70;;
64667;SDS011;51077;42.716;23.344;2024-03-08T05:09:13;3.55;;;2.38;;
64667;SDS011;51077;42.716;23.344;2024-03-08T05:11:40;5.05;;;2.63;;
64667;SDS011;51077;42.716;23.344;2024-03-08T05:14:09;4.38;;;2.72;;
64667;SDS011;51077;42.716;23.344;2024-03-08T05:16:35;4.78;;;2.70;;
64667;SDS011;51077;42.716;23.344;2024-03-08T05:19:01;3.87;;;2.87;;
64667;SDS011;51077;42.716;23.344;2024-03-08T05:21:27;4.65;;;2.55;;
64667;SDS011;51077;42.716;23.344;2024-03-08T05:23:54;5.53;;;2.72;;
64667;SDS011;51077;42.716;23.344;2024-03-08T05:26:19;4.27;;;3.13;;
64667;SDS011;51077;42.716;23.344;2024-03-08T05:28:45;4.57;;;2.87;;
64667;SDS011;51077;42.716;23.344;2024-03-08T05:31:17;4.53;;;2.83;;
64667;SDS011;51077;42.716;23.344;2024-03-08T05:33:49;5.40;;;3.03;;
64667;SDS011;51077;42.716;23.344;2024-03-08T05:36:15;4.72;;;2.80;;
64667;SDS011;51077;42.716;23.344;2024-03-08T05:38:42;5.65;;;3.40;;
64667;SDS011;51077;42.716;23.344;2024-03-08T05:41:08;5.35;;;2.92;;
64667;SDS011;51077;42.716;23.344;2024-03-08T05:43:34;5.38;;;3.60;;
64667;SDS011;51077;42.716;23.344;2024-03-08T05:46:00;6.43;;;3.83;;
64667;SDS011;51077;42.716;23.344;2024-03-08T05:48:25;6.27;;;3.77;;
64667;SDS011;51077;42.716;23.344;2024-03-08T05:50:51;6.13;;;3.47;;
64667;SDS011;51077;42.716;23.344;2024-03-08T05:53:16;6.70;;;4.00;;
64667;SDS011;51077;42.716;23.344;2024-03-08T05:55:41;5.63;;;3.67;;
64667;SDS011;51077;42.716;23.344;2024-03-08T05:58:07;5.27;;;3.73;;
64667;SDS011;51077;42.716;23.344;2024-03-08T06:00:33;6.07;;;3.92;;
64667;SDS011;51077;42.716;23.344;2024-03-08T06:03:01;5.68;;;3.45;;
64667;SDS011;51077;42.716;23.344;2024-03-08T06:05:27;5.65;;;3.78;;
64667;SDS011;51077;42.716;23.344;2024-03-08T06:07:53;6.00;;;3.70;;
64667;SDS011;51077;42.716;23.344;2024-03-08T06:10:18;6.37;;;4.10;;
64667;SDS011;51077;42.716;23.344;2024-03-08T06:12:45;6.47;;;3.95;;
64667;SDS011;51077;42.716;23.344;2024-03-08T06:15:12;6.00;;;3.88;;
64667;SDS011;51077;42.716;23.344;2024-03-08T06:17:41;6.95;;;4.32;;
64667;SDS011;51077;42.716;23.344;2024-03-08T06:20:07;5.80;;;3.87;;
64667;SDS011;51077;42.716;23.344;2024-03-08T06:22:37;5.22;;;3.42;;
64667;SDS011;51077;42.716;23.344;2024-03-08T06:25:06;4.47;;;3.22;;
64667;SDS011;51077;42.716;23.344;2024-03-08T06:27:32;5.28;;;3.50;;
64667;SDS011;51077;42.716;23.344;2024-03-08T06:29:59;5.20;;;3.50;;
64667;SDS011;51077;42.716;23.344;2024-03-08T06:32:27;5.45;;;3.85;;
64667;SDS011;51077;42.716;23.344;2024-03-08T06:34:52;6.00;;;3.60;;
64667;SDS011;51077;42.716;23.344;2024-03-08T06:37:18;6.78;;;3.80;;
64667;SDS011;51077;42.716;23.344;2024-03-08T06:39:47;6.40;;;3.70;;
64667;SDS011;51077;42.716;23.344;2024-03-08T06:42:13;5.53;;;3.33;;
64667;SDS011;51077;42.716;23.344;2024-03-08T06:44:40;6.15;;;3.80;;
64667;SDS011;51077;42.716;23.344;2024-03-08T06:47:14;5.50;;;3.92;;
64667;SDS011;51077;42.716;23.344;2024-03-08T06:49:43;6.22;;;3.70;;
64667;SDS011;51077;42.716;23.344;2024-03-08T06:52:09;5.27;;;3.47;;
64667;SDS011;51077;42.716;23.344;2024-03-08T06:54:35;5.72;;;3.67;;
64667;SDS011;51077;42.716;23.344;2024-03-08T06:57:01;6.10;;;3.58;;
64667;SDS011;51077;42.716;23.344;2024-03-08T06:59:30;5.65;;;3.47;;
64667;SDS011;51077;42.716;23.344;2024-03-08T07:01:56;6.28;;;3.63;;
64667;SDS011;51077;42.716;23.344;2024-03-08T07:04:21;5.17;;;3.27;;
64667;SDS011;51077;42.716;23.344;2024-03-08T07:06:51;5.82;;;3.55;;
64667;SDS011;51077;42.716;23.344;2024-03-08T07:09:16;5.43;;;3.90;;
64667;SDS011;51077;42.716;23.344;2024-03-08T07:11:42;5.68;;;3.30;;
64667;SDS011;51077;42.716;23.344;2024-03-08T07:14:08;5.23;;;3.40;;
64667;SDS011;51077;42.716;23.344;2024-03-08T07:16:34;7.27;;;3.83;;
64667;SDS011;51077;42.716;23.344;2024-03-08T07:19:00;5.47;;;3.60;;
64667;SDS011;51077;42.716;23.344;2024-03-08T07:21:26;5.88;;;3.60;;
64667;SDS011;51077;42.716;23.344;2024-03-08T07:23:52;6.90;;;4.23;;
64667;SDS011;51077;42.716;23.344;2024-03-08T07:26:26;5.60;;;3.17;;
64667;SDS011;51077;42.716;23.344;2024-03-08T07:28:52;5.57;;;3.60;;
64667;SDS011;51077;42.716;23.344;2024-03-08T07:31:22;5.25;;;3.42;;
64667;SDS011;51077;42.716;23.344;2024-03-08T07:33:50;6.10;;;3.95;;
64667;SDS011;51077;42.716;23.344;2024-03-08T07:36:16;7.03;;;4.20;;
64667;SDS011;51077;42.716;23.344;2024-03-08T07:38:41;6.60;;;4.43;;
64667;SDS011;51077;42.716;23.344;2024-03-08T07:41:06;7.10;;;4.07;;
64667;SDS011;51077;42.716;23.344;2024-03-08T07:43:32;6.57;;;3.77;;
64667;SDS011;51077;42.716;23.344;2024-03-08T07:46:00;6.75;;;4.47;;
64667;SDS011;51077;42.716;23.344;2024-03-08T07:48:26;6.93;;;4.00;;
64667;SDS011;51077;42.716;23.344;2024-03-08T07:50:52;6.57;;;4.22;;
64667;SDS011;51077;42.716;23.344;2024-03-08T07:53:17;7.70;;;4.47;;
64667;SDS011;51077;42.716;23.344;2024-03-08T07:55:42;5.80;;;3.83;;
64667;SDS011;51077;42.716;23.344;2024-03-08T07:58:09;6.82;;;4.03;;
64667;SDS011;51077;42.716;23.344;2024-03-08T08:00:36;6.97;;;3.75;;
64667;SDS011;51077;42.716;23.344;2024-03-08T08:03:01;6.23;;;3.63;;
64667;SDS011;51077;42.716;23.344;2024-03-08T08:05:27;5.22;;;3.22;;
64667;SDS011;51077;42.716;23.344;2024-03-08T08:07:53;5.67;;;3.67;;
64667;SDS011;51077;42.716;23.344;2024-03-08T08:10:18;5.20;;;3.30;;
64667;SDS011;51077;42.716;23.344;2024-03-08T08:12:49;6.03;;;3.40;;
64667;SDS011;51077;42.716;23.344;2024-03-08T08:15:16;5.07;;;3.20;;
64667;SDS011;51077;42.716;23.344;2024-03-08T08:17:43;5.07;;;3.15;;
64667;SDS011;51077;42.716;23.344;2024-03-08T08:20:09;4.93;;;3.20;;
64667;SDS011;51077;42.716;23.344;2024-03-08T08:22:38;4.90;;;3.40;;
64667;SDS011;51077;42.716;23.344;2024-03-08T08:25:05;5.80;;;3.35;;
64667;SDS011;51077;42.716;23.344;2024-03-08T08:27:30;5.70;;;3.30;;
64667;SDS011;51077;42.716;23.344;2024-03-08T08:29:55;5.70;;;3.33;;
64667;SDS011;51077;42.716;23.344;2024-03-08T08:32:21;5.30;;;3.47;;
64667;SDS011;51077;42.716;23.344;2024-03-08T08:34:47;5.90;;;3.33;;
64667;SDS011;51077;42.716;23.344;2024-03-08T08:37:13;5.33;;;3.23;;
64667;SDS011;51077;42.716;23.344;2024-03-08T08:39:38;6.53;;;3.00;;
64667;SDS011;51077;42.716;23.344;2024-03-08T08:42:04;4.57;;;2.80;;
64667;SDS011;51077;42.716;23.344;2024-03-08T08:44:29;4.27;;;2.80;;
64667;SDS011;51077;42.716;23.344;2024-03-08T08:46:56;3.97;;;2.58;;
64667;SDS011;51077;42.716;23.344;2024-03-08T08:49:22;5.97;;;2.78;;
64667;SDS011;51077;42.716;23.344;2024-03-08T08:51:52;4.50;;;2.88;;
64667;SDS011;51077;42.716;23.344;2024-03-08T08:54:17;4.35;;;2.72;;
64667;SDS011;51077;42.716;23.344;2024-03-08T08:56:43;4.43;;;2.70;;
64667;SDS011;51077;42.716;23.344;2024-03-08T08:59:09;4.30;;;2.92;;
64667;SDS011;51077;42.716;23.344;2024-03-08T09:01:38;4.25;;;2.60;;
64667;SDS011;51077;42.716;23.344;2024-03-08T09:04:07;4.72;;;2.42;;
64667;SDS011;51077;42.716;23.344;2024-03-08T09:06:33;4.93;;;2.67;;
64667;SDS011;51077;42.716;23.344;2024-03-08T09:08:59;4.20;;;2.47;;
64667;SDS011;51077;42.716;23.344;2024-03-08T09:11:24;4.30;;;2.50;;
64667;SDS011;51077;42.716;23.344;2024-03-08T09:13:50;3.75;;;2.30;;
64667;SDS011;51077;42.716;23.344;2024-03-08T09:16:17;4.95;;;2.28;;
64667;SDS011;51077;42.716;23.344;2024-03-08T09:18:42;5.27;;;2.83;;
64667;SDS011;51077;42.716;23.344;2024-03-08T09:21:07;4.07;;;2.70;;
64667;SDS011;51077;42.716;23.344;2024-03-08T09:23:35;4.22;;;2.60;;
64667;SDS011;51077;42.716;23.344;2024-03-08T09:26:03;4.78;;;2.40;;
64667;SDS011;51077;42.716;23.344;2024-03-08T09:28:29;3.53;;;2.40;;
64667;SDS011;51077;42.716;23.344;2024-03-08T09:30:54;4.27;;;2.60;;
64667;SDS011;51077;42.716;23.344;2024-03-08T09:33:20;3.13;;;2.27;;
64667;SDS011;51077;42.716;23.344;2024-03-08T09:35:46;3.88;;;2.20;;
64667;SDS011;51077;42.716;23.344;2024-03-08T09:38:13;2.97;;;2.00;;
64667;SDS011;51077;42.716;23.344;2024-03-08T09:40:42;4.28;;;2.33;;
64667;SDS011;51077;42.716;23.344;2024-03-08T09:43:11;3.90;;;2.38;;
64667;SDS011;51077;42.716;23.344;2024-03-08T09:45:37;3.58;;;2.10;;
64667;SDS011;51077;42.716;23.344;2024-03-08T09:48:09;5.93;;;2.53;;
64667;SDS011;51077;42.716;23.344;2024-03-08T09:50:42;3.08;;;1.80;;
64667;SDS011;51077;42.716;23.344;2024-03-08T09:53:07;3.78;;;2.05;;
64667;SDS011;51077;42.716;23.344;2024-03-08T09:55:36;3.03;;;1.83;;
64667;SDS011;51077;42.716;23.344;2024-03-08T09:58:02;2.70;;;1.90;;
64667;SDS011;51077;42.716;23.344;2024-03-08T10:00:46;3.53;;;2.30;;
64667;SDS011;51077;42.716;23.344;2024-03-08T10:03:12;3.83;;;2.17;;
64667;SDS011;51077;42.716;23.344;2024-03-08T10:05:39;3.28;;;1.95;;
64667;SDS011;51077;42.716;23.344;2024-03-08T10:08:06;3.53;;;1.55;;
64667;SDS011;51077;42.716;23.344;2024-03-08T10:10:33;2.60;;;1.50;;
64667;SDS011;51077;42.716;23.344;2024-03-08T10:12:59;2.85;;;1.75;;
64667;SDS011;51077;42.716;23.344;2024-03-08T10:15:27;3.10;;;1.70;;
64667;SDS011;51077;42.716;23.344;2024-03-08T10:17:58;2.78;;;1.42;;
64667;SDS011;51077;42.716;23.344;2024-03-08T10:20:24;3.57;;;1.63;;
64667;SDS011;51077;42.716;23.344;2024-03-08T10:22:49;3.23;;;1.57;;
64667;SDS011;51077;42.716;23.344;2024-03-08T10:25:16;2.83;;;1.38;;
64667;SDS011;51077;42.716;23.344;2024-03-08T10:27:42;3.28;;;1.40;;
64667;SDS011;51077;42.716;23.344;2024-03-08T10:30:12;2.57;;;1.70;;
64667;SDS011;51077;42.716;23.344;2024-03-08T10:32:40;3.40;;;1.42;;
64667;SDS011;51077;42.716;23.344;2024-03-08T10:35:09;2.53;;;1.45;;
64667;SDS011;51077;42.716;23.344;2024-03-08T10:37:47;2.40;;;1.48;;
64667;SDS011;51077;42.716;23.344;2024-03-08T10:40:18;3.45;;;1.40;;
64667;SDS011;51077;42.716;23.344;2024-03-08T10:42:54;2.60;;;1.50;;
64667;SDS011;51077;42.716;23.344;2024-03-08T10:45:39;2.28;;;1.15;;
64667;SDS011;51077;42.716;23.344;2024-03-08T10:48:10;3.15;;;1.58;;
64667;SDS011;51077;42.716;23.344;2024-03-08T10:50:53;2.60;;;1.50;;
64667;SDS011;51077;42.716;23.344;2024-03-08T10:53:19;3.03;;;1.50;;
64667;SDS011;51077;42.716;23.344;2024-03-08T10:55:47;2.28;;;1.33;;
64667;SDS011;51077;42.716;23.344;2024-03-08T10:58:15;2.83;;;1.33;;
64667;SDS011;51077;42.716;23.344;2024-03-08T11:00:42;3.40;;;2.00;;
64667;SDS011;51077;42.716;23.344;2024-03-08T11:03:07;3.43;;;2.13;;
64667;SDS011;51077;42.716;23.344;2024-03-08T11:06:05;4.10;;;2.30;;
64667;SDS011;51077;42.716;23.344;2024-03-08T11:08:31;3.50;;;2.15;;
64667;SDS011;51077;42.716;23.344;2024-03-08T11:10:58;3.65;;;1.70;;
64667;SDS011;51077;42.716;23.344;2024-03-08T11:13:42;2.57;;;1.60;;
64667;SDS011;51077;42.716;23.344;2024-03-08T11:16:11;3.22;;;1.85;;
64667;SDS011;51077;42.716;23.344;2024-03-08T11:18:48;3.78;;;1.90;;
64667;SDS011;51077;42.716;23.344;2024-03-08T11:21:14;3.60;;;1.90;;
64667;SDS011;51077;42.716;23.344;2024-03-08T11:23:40;2.85;;;1.42;;
64667;SDS011;51077;42.716;23.344;2024-03-08T11:26:22;2.30;;;1.30;;
64667;SDS011;51077;42.716;23.344;2024-03-08T11:28:49;3.95;;;1.25;;
64667;SDS011;51077;42.716;23.344;2024-03-08T11:33:46;2.40;;;1.30;;
64667;SDS011;51077;42.716;23.344;2024-03-08T11:36:13;2.80;;;1.20;;
64667;SDS011;51077;42.716;23.344;2024-03-08T11:38:47;2.38;;;1.23;;
64667;SDS011;51077;42.716;23.344;2024-03-08T11:41:14;1.95;;;1.10;;
64667;SDS011;51077;42.716;23.344;2024-03-08T11:43:44;1.90;;;1.02;;
64667;SDS011;51077;42.716;23.344;2024-03-08T11:46:14;1.60;;;0.90;;
64667;SDS011;51077;42.716;23.344;2024-03-08T11:48:41;2.55;;;1.20;;
64667;SDS011;51077;42.716;23.344;2024-03-08T11:51:16;2.40;;;1.20;;
64667;SDS011;51077;42.716;23.344;2024-03-08T11:53:43;2.67;;;1.50;;
64667;SDS011;51077;42.716;23.344;2024-03-08T11:56:10;2.67;;;1.15;;
64667;SDS011;51077;42.716;23.344;2024-03-08T11:58:37;4.80;;;1.30;;
64667;SDS011;51077;42.716;23.344;2024-03-08T12:01:07;2.08;;;0.98;;
64667;SDS011;51077;42.716;23.344;2024-03-08T12:03:42;2.50;;;1.10;;
64667;SDS011;51077;42.716;23.344;2024-03-08T12:06:08;2.37;;;1.40;;
64667;SDS011;51077;42.716;23.344;2024-03-08T12:08:35;1.90;;;1.00;;
64667;SDS011;51077;42.716;23.344;2024-03-08T12:11:01;3.28;;;1.80;;
64667;SDS011;51077;42.716;23.344;2024-03-08T12:13:32;2.35;;;1.20;;
64667;SDS011;51077;42.716;23.344;2024-03-08T12:15:59;2.00;;;1.00;;
64667;SDS011;51077;42.716;23.344;2024-03-08T12:18:25;1.98;;;1.02;;
64667;SDS011;51077;42.716;23.344;2024-03-08T12:21:08;2.50;;;1.38;;
64667;SDS011;51077;42.716;23.344;2024-03-08T12:23:39;2.17;;;1.20;;
64667;SDS011;51077;42.716;23.344;2024-03-08T12:26:18;2.20;;;1.13;;
64667;SDS011;51077;42.716;23.344;2024-03-08T12:28:48;1.45;;;0.93;;
64667;SDS011;51077;42.716;23.344;2024-03-08T12:31:14;2.10;;;1.10;;
64667;SDS011;51077;42.716;23.344;2024-03-08T12:33:48;1.92;;;0.98;;
64667;SDS011;51077;42.716;23.344;2024-03-08T12:36:15;2.83;;;1.20;;
64667;SDS011;51077;42.716;23.344;2024-03-08T12:38:44;1.93;;;1.07;;
64667;SDS011;51077;42.716;23.344;2024-03-08T12:41:13;1.73;;;0.90;;
64667;SDS011;51077;42.716;23.344;2024-03-08T12:43:43;2.10;;;1.13;;
64667;SDS011;51077;42.716;23.344;2024-03-08T12:46:15;2.17;;;1.20;;
64667;SDS011;51077;42.716;23.344;2024-03-08T12:48:45;2.43;;;1.13;;
64667;SDS011;51077;42.716;23.344;2024-03-08T12:51:14;2.10;;;1.00;;
64667;SDS011;51077;42.716;23.344;2024-03-08T12:53:43;2.23;;;1.10;;
64667;SDS011;51077;42.716;23.344;2024-03-08T12:56:54;1.70;;;0.90;;
64667;SDS011;51077;42.716;23.344;2024-03-08T12:59:01;2.20;;;1.10;;
64667;SDS011;51077;42.716;23.344;2024-03-08T13:01:28;1.83;;;0.80;;
64667;SDS011;51077;42.716;23.344;2024-03-08T13:03:54;1.63;;;1.03;;
64667;SDS011;51077;42.716;23.344;2024-03-08T13:06:20;1.60;;;0.80;;
64667;SDS011;51077;42.716;23.344;2024-03-08T13:08:49;1.60;;;0.77;;
64667;SDS011;51077;42.716;23.344;2024-03-08T13:11:16;1.90;;;1.00;;
64667;SDS011;51077;42.716;23.344;2024-03-08T13:13:42;2.10;;;1.07;;
64667;SDS011;51077;42.716;23.344;2024-03-08T13:16:09;2.47;;;0.83;;
64667;SDS011;51077;42.716;23.344;2024-03-08T13:18:37;2.83;;;1.13;;
64667;SDS011;51077;42.716;23.344;2024-03-08T13:21:03;2.47;;;1.00;;
64667;SDS011;51077;42.716;23.344;2024-03-08T13:23:32;2.33;;;0.80;;
64667;SDS011;51077;42.716;23.344;2024-03-08T13:25:58;2.03;;;0.98;;
64667;SDS011;51077;42.716;23.344;2024-03-08T13:28:24;2.00;;;1.00;;
64667;SDS011;51077;42.716;23.344;2024-03-08T13:30:54;5.70;;;1.00;;
64667;SDS011;51077;42.716;23.344;2024-03-08T13:33:22;2.80;;;1.10;;
64667;SDS011;51077;42.716;23.344;2024-03-08T13:35:48;2.57;;;0.90;;
64667;SDS011;51077;42.716;23.344;2024-03-08T13:38:15;3.45;;;1.10;;
64667;SDS011;51077;42.716;23.344;2024-03-08T13:40:43;3.05;;;1.20;;
64667;SDS011;51077;42.716;23.344;2024-03-08T13:43:08;1.73;;;1.10;;
64667;SDS011;51077;42.716;23.344;2024-03-08T13:45:34;2.87;;;1.33;;
64667;SDS011;51077;42.716;23.344;2024-03-08T13:48:03;2.20;;;1.25;;
64667;SDS011;51077;42.716;23.344;2024-03-08T13:50:32;2.40;;;1.27;;
64667;SDS011;51077;42.716;23.344;2024-03-08T13:52:57;2.10;;;1.20;;
64667;SDS011;51077;42.716;23.344;2024-03-08T13:55:23;2.20;;;1.00;;
64667;SDS011;51077;42.716;23.344;2024-03-08T13:57:52;3.47;;;1.10;;
64667;SDS011;51077;42.716;23.344;2024-03-08T14:00:17;2.37;;;1.20;;
64667;SDS011;51077;42.716;23.344;2024-03-08T14:02:42;1.83;;;1.00;;
64667;SDS011;51077;42.716;23.344;2024-03-08T14:05:09;3.30;;;1.10;;
64667;SDS011;51077;42.716;23.344;2024-03-08T14:07:36;2.90;;;1.40;;
64667;SDS011;51077;42.716;23.344;2024-03-08T14:10:01;3.50;;;1.20;;
64667;SDS011;51077;42.716;23.344;2024-03-08T14:12:26;2.23;;;1.30;;
64667;SDS011;51077;42.716;23.344;2024-03-08T14:14:55;3.17;;;1.10;;
64667;SDS011;51077;42.716;23.344;2024-03-08T14:17:24;2.72;;;1.40;;
64667;SDS011;51077;42.716;23.344;2024-03-08T14:19:52;2.15;;;1.30;;
64667;SDS011;51077;42.716;23.344;2024-03-08T14:22:18;3.53;;;1.30;;
64667;SDS011;51077;42.716;23.344;2024-03-08T14:24:43;3.57;;;1.87;;
64667;SDS011;51077;42.716;23.344;2024-03-08T14:27:10;3.63;;;2.42;;
64667;SDS011;51077;42.716;23.344;2024-03-08T14:29:37;3.90;;;2.22;;
64667;SDS011;51077;42.716;23.344;2024-03-08T14:32:03;3.97;;;2.22;;
64667;SDS011;51077;42.716;23.344;2024-03-08T14:34:33;3.90;;;2.13;;
64667;SDS011;51077;42.716;23.344;2024-03-08T14:36:59;4.00;;;2.70;;